createdAt,value
2018-04-13T00:02:38.878Z,15.1
2018-04-13T00:07:38.867Z,15.1
2018-04-13T00:12:39.046Z,15
2018-04-13T00:17:38.883Z,14.9
2018-04-13T00:22:39.034Z,14.7
2018-04-13T00:27:39.251Z,14.7
2018-04-13T00:32:50.940Z,14.8
2018-04-13T00:37:50.625Z,14.8
2018-04-13T00:42:50.793Z,14.9
2018-04-13T00:47:50.855Z,14.9
2018-04-13T00:52:50.893Z,14.9
2018-04-13T00:57:57.244Z,14.9
2018-04-13T01:02:57.254Z,14.8
2018-04-13T01:07:57.616Z,14.8
2018-04-13T01:12:57.570Z,14.7
2018-04-13T01:18:09.994Z,14.7
2018-04-13T01:23:09.720Z,14.6
2018-04-13T01:28:09.969Z,14.6
2018-04-13T01:33:09.734Z,14.5
2018-04-13T01:38:09.933Z,14.4
2018-04-13T01:43:09.948Z,14.4
2018-04-13T01:48:09.743Z,14.4
2018-04-13T01:53:09.738Z,14.3
2018-04-13T01:58:09.742Z,14.3
2018-04-13T02:03:21.539Z,14.4
2018-04-13T02:08:21.493Z,14.3
2018-04-13T02:13:21.260Z,14.2
2018-04-13T02:18:21.248Z,14.2
2018-04-13T02:23:21.394Z,14.3
2018-04-13T02:28:21.256Z,14.4
2018-04-13T02:33:21.274Z,14.5
2018-04-13T02:38:21.483Z,14.5
2018-04-13T02:43:21.645Z,14.4
2018-04-13T02:48:34.046Z,14.5
2018-04-13T02:53:33.980Z,14.5
2018-04-13T02:58:33.915Z,14.4
2018-04-13T03:03:33.935Z,14.4
2018-04-13T03:08:33.780Z,14.3
2018-04-13T03:13:33.777Z,14.1
2018-04-13T03:18:33.962Z,14.2
2018-04-13T03:23:34.017Z,14.2
2018-04-13T03:28:34.212Z,14.1
2018-04-13T03:33:45.844Z,14
2018-04-13T03:38:45.566Z,13.9
2018-04-13T03:43:45.841Z,14
2018-04-13T03:48:45.724Z,14
2018-04-13T03:53:45.782Z,13.8
2018-04-13T03:58:46.060Z,13.9
2018-04-13T04:03:45.916Z,13.9
2018-04-13T04:08:45.791Z,13.8
2018-04-13T04:13:45.990Z,13.9
2018-04-13T04:19:15.117Z,13.7
2018-04-13T04:24:15.119Z,13.9
2018-04-13T04:29:15.132Z,13.7
2018-04-13T04:34:15.142Z,13.6
2018-04-13T04:39:25.692Z,13.5
2018-04-13T04:44:25.629Z,13.5
2018-04-13T04:49:25.522Z,13.6
2018-04-13T04:54:25.797Z,13.5
2018-04-13T04:59:25.380Z,13.5
2018-04-13T05:04:25.439Z,13.5
2018-04-13T05:09:25.785Z,13.5
2018-04-13T05:14:31.082Z,13.4
2018-04-13T05:19:31.015Z,13.4
2018-04-13T05:24:43.821Z,13.5
2018-04-13T05:29:43.565Z,13.6
2018-04-13T05:34:43.794Z,13.7
2018-04-13T05:39:43.720Z,13.8
2018-04-13T05:44:43.759Z,13.8
2018-04-13T05:49:43.806Z,14
2018-04-13T05:54:43.544Z,14
2018-04-13T05:59:43.973Z,14.6
2018-04-13T06:04:43.885Z,15
2018-04-13T06:09:55.536Z,15.4
2018-04-13T06:14:55.428Z,15.4
2018-04-13T06:19:55.494Z,15.7
2018-04-13T06:24:55.521Z,15.8
2018-04-13T06:29:55.413Z,16.3
2018-04-13T06:34:55.454Z,16.8
2018-04-13T06:39:55.486Z,17.2
2018-04-13T06:44:56.148Z,17.6
2018-04-13T06:49:56.086Z,17.9
2018-04-13T06:55:08.027Z,18.3
2018-04-13T07:00:07.926Z,18.6
2018-04-13T07:05:07.966Z,18.8
2018-04-13T07:10:07.740Z,19
2018-04-13T07:15:07.906Z,19.3
2018-04-13T07:20:08.049Z,19.6
2018-04-13T07:25:07.777Z,19.9
2018-04-13T07:30:07.923Z,20.1
2018-04-13T07:35:08.568Z,20
2018-04-13T07:40:08.001Z,20.4
2018-04-13T07:45:07.777Z,20.6
2018-04-13T07:50:07.948Z,20.7
2018-04-13T07:55:14.120Z,20.9
2018-04-13T08:00:13.854Z,21
2018-04-13T08:05:25.673Z,21.3
2018-04-13T08:10:25.627Z,21.5
2018-04-13T08:15:25.509Z,21.7
2018-04-13T08:20:25.412Z,21.7
2018-04-13T08:25:25.618Z,21.7
2018-04-13T08:30:25.441Z,21.8
2018-04-13T08:35:25.397Z,22
2018-04-13T08:40:29.875Z,21.9
2018-04-13T08:45:29.621Z,22.1
2018-04-13T08:50:41.803Z,22.3
2018-04-13T08:55:41.799Z,22.4
2018-04-13T09:00:41.692Z,22.7
2018-04-13T09:05:41.786Z,22.4
2018-04-13T09:10:41.543Z,22.8
2018-04-13T09:15:41.689Z,23.4
2018-04-13T09:20:41.628Z,22
2018-04-13T09:25:41.554Z,22.8
2018-04-13T09:30:41.544Z,23.4
2018-04-13T09:35:53.611Z,22.7
2018-04-13T09:40:53.409Z,22.5
2018-04-13T09:45:53.485Z,23.5
2018-04-13T09:50:53.517Z,22.5
2018-04-13T09:55:53.464Z,21.8
2018-04-13T10:00:53.327Z,21.6
2018-04-13T10:05:53.527Z,20.8
2018-04-13T10:10:53.360Z,19.9
2018-04-13T10:15:53.582Z,19.3
2018-04-13T10:21:05.905Z,18.7
2018-04-13T10:26:05.818Z,18.9
2018-04-13T10:31:05.788Z,18.7
2018-04-13T10:36:05.619Z,18
2018-04-13T10:41:05.638Z,17.5
2018-04-13T10:46:05.614Z,17.1
2018-04-13T10:51:05.805Z,17.5
2018-04-13T10:56:05.649Z,17.9
2018-04-13T11:01:05.666Z,18.4
2018-04-13T11:06:20.018Z,18.7
2018-04-13T11:11:19.897Z,18
2018-04-13T11:16:19.902Z,18.2
2018-04-13T11:21:19.840Z,17.8
2018-04-13T11:26:19.821Z,18.5
2018-04-13T11:31:19.907Z,19
2018-04-13T11:36:19.688Z,19.7
2018-04-13T11:41:19.691Z,20
2018-04-13T11:46:19.798Z,20
2018-04-13T11:51:32.228Z,20
2018-04-13T11:56:32.010Z,20.2
2018-04-13T12:01:32.179Z,20.2
2018-04-13T12:06:32.105Z,20
2018-04-13T12:11:31.969Z,20.1
2018-04-13T12:16:32.178Z,20.5
2018-04-13T12:21:32.137Z,21
2018-04-13T12:26:31.973Z,20.9
2018-04-13T12:31:32.173Z,20.7
2018-04-13T12:36:44.904Z,21.4
2018-04-13T12:41:44.867Z,20.9
2018-04-13T12:46:44.765Z,21.1
2018-04-13T12:51:44.739Z,21.2
2018-04-13T12:56:44.784Z,21.3
2018-04-13T13:01:44.659Z,21.4
2018-04-13T13:06:44.786Z,21.1
2018-04-13T13:11:44.737Z,21.6
2018-04-13T13:16:44.882Z,21.5
2018-04-13T13:21:57.183Z,21.6
2018-04-13T13:26:56.946Z,21.2
2018-04-13T13:31:56.893Z,21.5
2018-04-13T13:36:56.891Z,21.7
2018-04-13T13:41:57.081Z,21.6
2018-04-13T13:46:56.930Z,21.9
2018-04-13T13:51:57.132Z,21.6
2018-04-13T13:56:59.367Z,21.6
2018-04-13T14:01:59.339Z,21.4
2018-04-13T14:07:11.625Z,21.6
2018-04-13T14:12:11.569Z,21.3
2018-04-13T14:17:11.485Z,21.4
2018-04-13T14:22:11.543Z,21.4
2018-04-13T14:27:11.384Z,21.2
2018-04-13T14:32:11.385Z,21.3
2018-04-13T14:37:11.403Z,20.8
2018-04-13T14:42:12.357Z,20.4
2018-04-13T14:47:12.072Z,20.2
2018-04-13T14:52:24.569Z,20.2
2018-04-13T14:57:24.279Z,20.3
2018-04-13T15:02:24.104Z,19.8
2018-04-13T15:07:24.334Z,20.1
2018-04-13T15:12:24.585Z,20.4
2018-04-13T15:17:25.408Z,20.5
2018-04-13T15:22:25.389Z,20.5
2018-04-13T15:27:25.357Z,20.4
2018-04-13T15:32:25.338Z,20.5
2018-04-13T15:37:25.162Z,20.5
2018-04-13T15:42:25.403Z,20.4
2018-04-13T15:47:25.112Z,20.3
2018-04-13T15:52:25.492Z,20.4
2018-04-13T15:57:25.234Z,20.2
2018-04-13T16:02:37.929Z,20
2018-04-13T16:07:37.845Z,19.8
2018-04-13T16:12:37.648Z,19.7
2018-04-13T16:17:37.808Z,19.4
2018-04-13T16:22:37.648Z,19.1
2018-04-13T16:27:37.659Z,18.9
2018-04-13T16:32:37.691Z,18.7
2018-04-13T16:37:38.637Z,18.6
2018-04-13T16:42:38.380Z,18.4
2018-04-13T16:47:50.656Z,18.3
2018-04-13T16:52:50.404Z,18
2018-04-13T16:57:50.372Z,17.9
2018-04-13T17:02:50.617Z,17.5
2018-04-13T17:07:50.347Z,17.1
2018-04-13T17:12:50.399Z,16.8
2018-04-13T17:17:50.639Z,16.6
2018-04-13T17:22:50.397Z,16.5
2018-04-13T17:27:50.453Z,16.4
2018-04-13T17:32:50.668Z,16.2
2018-04-13T17:37:50.435Z,16.1
2018-04-13T17:42:50.574Z,16
2018-04-13T17:47:51.362Z,15.8
2018-04-13T17:52:51.250Z,15.7
2018-04-13T17:58:03.913Z,15.7
2018-04-13T18:03:03.563Z,15.7
2018-04-13T18:08:03.751Z,15.5
2018-04-13T18:13:03.826Z,15.4
2018-04-13T18:18:03.627Z,15.3
2018-04-13T18:23:03.849Z,15
2018-04-13T18:28:03.677Z,14.8
2018-04-13T18:33:03.989Z,14.7
2018-04-13T18:38:03.717Z,14.6
2018-04-13T18:43:16.466Z,14.6
2018-04-13T18:48:16.347Z,14.5
2018-04-13T18:53:16.357Z,14.4
2018-04-13T18:58:16.213Z,14.4
2018-04-13T19:03:16.182Z,14.4
2018-04-13T19:08:16.653Z,14.2
2018-04-13T19:13:16.376Z,14.1
2018-04-13T19:18:16.390Z,14.1
2018-04-13T19:23:16.603Z,14
2018-04-13T19:28:16.386Z,14
2018-04-13T19:33:16.371Z,14
2018-04-13T19:38:16.397Z,13.8
2018-04-13T19:43:19.098Z,13.6
2018-04-13T19:48:18.809Z,13.6
2018-04-13T19:53:31.111Z,13.5
2018-04-13T19:58:30.800Z,13.5
2018-04-13T20:03:30.848Z,13.4
2018-04-13T20:08:30.857Z,13.4
2018-04-13T20:13:30.833Z,13.4
2018-04-13T20:18:30.849Z,13.4
2018-04-13T20:23:30.857Z,13
2018-04-13T20:28:30.862Z,13.1
2018-04-13T20:33:30.841Z,12.9
2018-04-13T20:38:42.689Z,12.8
2018-04-13T20:43:42.789Z,12.7
2018-04-13T20:48:42.465Z,12.5
2018-04-13T20:53:42.458Z,12.3
2018-04-13T20:58:42.453Z,12.3
2018-04-13T21:03:42.441Z,12.1
2018-04-13T21:08:42.440Z,12
2018-04-13T21:13:47.278Z,12.1
2018-04-13T21:18:47.042Z,12
2018-04-13T21:23:58.982Z,11.9
2018-04-13T21:28:58.697Z,11.8
2018-04-13T21:33:58.690Z,11.6
2018-04-13T21:38:58.685Z,11.4
2018-04-13T21:43:58.725Z,11.3
2018-04-13T21:48:58.710Z,11.2
2018-04-13T21:53:58.704Z,11.2
2018-04-13T21:58:58.726Z,11.1
2018-04-13T22:03:58.739Z,11.1
2018-04-13T22:09:09.843Z,10.9
2018-04-13T22:14:09.557Z,10.4
2018-04-13T22:19:09.572Z,10.4
2018-04-13T22:24:09.583Z,10.5
2018-04-13T22:29:09.591Z,10.1
2018-04-13T22:34:09.561Z,10.2
2018-04-13T22:39:09.584Z,10.2
2018-04-13T22:44:10.411Z,10.1
2018-04-13T22:49:10.125Z,10
2018-04-13T22:54:22.394Z,10
2018-04-13T22:59:22.080Z,9.8
2018-04-13T23:04:22.147Z,9.9
2018-04-13T23:09:22.081Z,9.7
2018-04-13T23:14:22.202Z,9.3
2018-04-13T23:19:22.186Z,9.4
2018-04-13T23:24:22.187Z,9.3
2018-04-13T23:29:27.376Z,9.2
2018-04-13T23:34:27.096Z,9.3
2018-04-13T23:39:39.411Z,9.2
2018-04-13T23:44:39.147Z,9.2
2018-04-13T23:49:39.101Z,8.9
2018-04-13T23:54:39.248Z,8.9
2018-04-13T23:59:39.276Z,8.9
